createdAt,value
2023-07-31T00:00:15.924Z,100667.31
2023-07-31T00:02:43.395Z,100669.25
2023-07-31T00:05:11.010Z,100666.91
2023-07-31T00:07:37.889Z,100672.00
2023-07-31T00:10:05.149Z,100669.84
2023-07-31T00:12:32.078Z,100670.53
2023-07-31T00:14:58.939Z,100667.53
2023-07-31T00:17:25.868Z,100664.97
2023-07-31T00:19:52.806Z,100661.97
2023-07-31T00:22:19.693Z,100670.53
2023-07-31T00:24:46.623Z,100667.97
2023-07-31T00:27:13.541Z,100666.06
2023-07-31T00:29:40.560Z,100665.84
2023-07-31T00:32:08.181Z,100664.97
2023-07-31T00:34:35.558Z,100664.13
2023-07-31T00:37:03.895Z,100659.41
2023-07-31T00:39:32.136Z,100653.47
2023-07-31T00:42:00.684Z,100647.69
2023-07-31T00:44:27.855Z,100658.19
2023-07-31T00:46:57.007Z,100656.88
2023-07-31T00:49:24.608Z,100656.88
2023-07-31T00:51:51.675Z,100656.03
2023-07-31T00:54:19.140Z,100655.41
2023-07-31T00:56:49.756Z,100648.78
2023-07-31T00:59:16.679Z,100650.91
2023-07-31T01:01:43.595Z,100651.31
2023-07-31T01:04:10.493Z,100638.13
2023-07-31T01:06:54.286Z,100646.63
2023-07-31T01:09:35.193Z,100643.25
2023-07-31T01:12:05.052Z,100640.47
2023-07-31T01:14:32.016Z,100635.13
2023-07-31T01:16:59.143Z,100633.22
2023-07-31T01:19:31.702Z,100638.13
2023-07-31T01:22:30.988Z,100646.03
2023-07-31T01:25:53.518Z,100641.69
2023-07-31T01:28:55.115Z,100640.63
2023-07-31T01:31:26.156Z,100638.53
2023-07-31T01:33:57.753Z,100638.13
2023-07-31T01:36:24.903Z,100645.66
2023-07-31T01:38:51.817Z,100629.97
2023-07-31T01:41:20.002Z,100639.81
2023-07-31T01:43:47.735Z,100637.28
2023-07-31T01:46:14.779Z,100627.91
2023-07-31T01:48:41.819Z,100635.16
2023-07-31T01:51:08.774Z,100631.31
2023-07-31T01:53:36.895Z,100626.41
2023-07-31T01:56:03.921Z,100619.13
2023-07-31T01:58:31.387Z,100627.44
2023-07-31T02:00:58.277Z,100618.50
2023-07-31T02:03:25.236Z,100617.88
2023-07-31T02:05:55.956Z,100617.44
2023-07-31T02:08:22.859Z,100622.97
2023-07-31T02:10:49.778Z,100618.50
2023-07-31T02:13:16.706Z,100610.41
2023-07-31T02:15:43.734Z,100614.03
2023-07-31T02:18:11.524Z,100614.03
2023-07-31T02:20:38.424Z,100597.63
2023-07-31T02:23:05.376Z,100591.44
2023-07-31T02:25:32.282Z,100591.19
2023-07-31T02:27:59.244Z,100590.34
2023-07-31T02:30:26.519Z,100591.19
2023-07-31T02:32:53.428Z,100589.50
2023-07-31T02:35:20.383Z,100593.34
2023-07-31T02:37:47.279Z,100601.22
2023-07-31T02:40:14.576Z,100588.66
2023-07-31T02:42:41.514Z,100585.63
2023-07-31T02:45:09.258Z,100585.63
2023-07-31T02:47:36.332Z,100583.97
2023-07-31T02:50:04.838Z,100586.97
2023-07-31T02:52:31.962Z,100583.56
2023-07-31T02:54:59.401Z,100570.75
2023-07-31T02:57:26.347Z,100577.19
2023-07-31T02:59:53.332Z,100564.38
2023-07-31T03:02:20.632Z,100576.09
2023-07-31T03:04:47.630Z,100575.84
2023-07-31T03:07:15.341Z,100578.00
2023-07-31T03:09:42.266Z,100571.63
2023-07-31T03:12:09.745Z,100566.53
2023-07-31T03:14:37.202Z,100569.91
2023-07-31T03:17:04.487Z,100572.47
2023-07-31T03:19:33.246Z,100577.19
2023-07-31T03:22:01.056Z,100577.63
2023-07-31T03:24:30.452Z,100569.47
2023-07-31T03:26:57.564Z,100572.91
2023-07-31T03:29:24.954Z,100575.47
2023-07-31T03:31:53.348Z,100566.53
2023-07-31T03:34:20.313Z,100569.28
2023-07-31T03:36:47.354Z,100559.25
2023-07-31T03:39:14.274Z,100560.13
2023-07-31T03:41:41.150Z,100558.19
2023-07-31T03:44:08.801Z,100548.16
2023-07-31T03:46:37.325Z,100551.56
2023-07-31T03:49:04.695Z,100539.22
2023-07-31T03:51:31.699Z,100549.03
2023-07-31T03:53:58.647Z,100539.63
2023-07-31T03:56:25.523Z,100542.00
2023-07-31T03:58:52.382Z,100540.94
2023-07-31T04:01:22.494Z,100542.88
2023-07-31T04:03:49.456Z,100535.38
2023-07-31T04:06:19.137Z,100529.84
2023-07-31T04:08:46.320Z,100524.28
2023-07-31T04:11:13.620Z,100532.59
2023-07-31T04:13:40.669Z,100522.56
2023-07-31T04:16:07.544Z,100519.19
2023-07-31T04:18:34.542Z,100523.06
2023-07-31T04:21:02.399Z,100519.19
2023-07-31T04:23:29.790Z,100514.25
2023-07-31T04:25:57.208Z,100518.13
2023-07-31T04:28:24.372Z,100513.63
2023-07-31T04:30:51.392Z,100513.63
2023-07-31T04:33:18.348Z,100517.03
2023-07-31T04:35:53.601Z,100520.91
2023-07-31T04:38:22.071Z,100509.19
2023-07-31T04:40:49.938Z,100516.84
2023-07-31T04:43:16.894Z,100515.78
2023-07-31T04:45:48.882Z,100501.91
2023-07-31T04:48:16.123Z,100511.94
2023-07-31T04:50:43.435Z,100502.97
2023-07-31T04:53:10.362Z,100502.97
2023-07-31T04:55:37.248Z,100508.53
2023-07-31T04:58:04.216Z,100502.97
2023-07-31T05:00:31.193Z,100500.22
2023-07-31T05:02:58.231Z,100498.75
2023-07-31T05:05:25.272Z,100494.03
2023-07-31T05:07:52.132Z,100497.91
2023-07-31T05:10:19.028Z,100490.22
2023-07-31T05:12:45.957Z,100488.50
2023-07-31T05:15:12.907Z,100484.66
2023-07-31T05:17:39.979Z,100483.44
2023-07-31T05:20:08.085Z,100480.16
2023-07-31T05:22:35.020Z,100468.00
2023-07-31T05:25:02.028Z,100466.31
2023-07-31T05:27:29.023Z,100474.63
2023-07-31T05:29:55.920Z,100472.72
2023-07-31T05:32:23.481Z,100462.91
2023-07-31T05:34:53.494Z,100464.41
2023-07-31T05:37:21.229Z,100461.84
2023-07-31T05:39:48.061Z,100460.75
2023-07-31T05:42:15.148Z,100459.91
2023-07-31T05:44:42.018Z,100457.38
2023-07-31T05:47:08.920Z,100460.13
2023-07-31T05:49:35.878Z,100459.91
2023-07-31T05:52:02.882Z,100453.31
2023-07-31T05:54:29.743Z,100440.72
2023-07-31T05:56:56.592Z,100436.88
2023-07-31T05:59:23.505Z,100435.66
2023-07-31T06:01:50.590Z,100437.94
2023-07-31T06:04:17.606Z,100435.19
2023-07-31T06:06:44.566Z,100437.28
2023-07-31T06:09:11.478Z,100431.94
2023-07-31T06:11:38.447Z,100436.66
2023-07-31T06:14:05.345Z,100431.34
2023-07-31T06:16:32.442Z,100430.00
2023-07-31T06:18:59.340Z,100430.00
2023-07-31T06:21:26.337Z,100430.84
2023-07-31T06:23:53.278Z,100429.19
2023-07-31T06:26:20.380Z,100434.72
2023-07-31T06:28:47.619Z,100433.00
2023-07-31T06:31:14.572Z,100429.19
2023-07-31T06:33:41.567Z,100429.19
2023-07-31T06:36:08.772Z,100423.63
2023-07-31T06:38:35.684Z,100422.53
2023-07-31T06:41:02.561Z,100427.03
2023-07-31T06:43:29.788Z,100422.69
2023-07-31T06:45:56.861Z,100414.00
2023-07-31T06:48:23.786Z,100406.53
2023-07-31T06:50:50.723Z,100401.00
2023-07-31T06:53:17.632Z,100397.72
2023-07-31T06:55:44.631Z,100392.66
2023-07-31T06:58:11.532Z,100383.25
2023-07-31T07:00:38.475Z,100386.84
2023-07-31T07:03:05.448Z,100390.50
2023-07-31T07:05:32.451Z,100394.97
2023-07-31T07:07:59.367Z,100393.28
2023-07-31T07:10:26.297Z,100384.47
2023-07-31T07:12:56.481Z,100384.34
2023-07-31T07:15:23.497Z,100383.84
2023-07-31T07:17:50.475Z,100383.03
2023-07-31T07:20:17.586Z,100378.31
2023-07-31T07:22:44.566Z,100378.09
2023-07-31T07:25:11.702Z,100381.69
2023-07-31T07:27:38.552Z,100372.75
2023-07-31T07:30:06.390Z,100368.91
2023-07-31T07:32:33.341Z,100372.75
2023-07-31T07:35:00.404Z,100370.59
2023-07-31T07:37:27.280Z,100368.91
2023-07-31T07:39:54.135Z,100373.63
2023-07-31T07:42:20.976Z,100371.91
2023-07-31T07:44:47.874Z,100375.75
2023-07-31T07:47:15.029Z,100367.69
2023-07-31T07:49:42.010Z,100387.72
2023-07-31T07:52:08.983Z,100372.16
2023-07-31T07:54:35.957Z,100365.53
2023-07-31T07:57:02.951Z,100375.38
2023-07-31T07:59:29.880Z,100366.00
2023-07-31T08:01:56.781Z,100370.69
2023-07-31T08:04:23.627Z,100369.81
2023-07-31T08:06:50.579Z,100369.59
2023-07-31T08:09:17.541Z,100376.63
2023-07-31T08:11:44.465Z,100362.16
2023-07-31T08:14:11.386Z,100363.22
2023-07-31T08:16:38.690Z,100360.44
2023-07-31T08:19:06.129Z,100363.44
2023-07-31T08:21:33.403Z,100362.00
2023-07-31T08:24:00.328Z,100369.81
2023-07-31T08:26:27.657Z,100363.44
2023-07-31T08:28:54.563Z,100357.06
2023-07-31T08:31:21.539Z,100364.28
2023-07-31T08:33:48.447Z,100362.16
2023-07-31T08:36:15.321Z,100358.72
2023-07-31T08:38:42.268Z,100362.59
2023-07-31T08:41:09.143Z,100358.72
2023-07-31T08:43:38.988Z,100358.72
2023-07-31T08:46:07.049Z,100357.06
2023-07-31T08:48:35.079Z,100359.81
2023-07-31T08:51:02.273Z,100355.97
2023-07-31T08:53:29.220Z,100364.75
2023-07-31T08:55:59.573Z,100365.16
2023-07-31T08:58:32.542Z,100363.22
2023-07-31T09:01:05.413Z,100356.81
2023-07-31T09:03:37.156Z,100363.44
2023-07-31T09:06:07.264Z,100373.94
2023-07-31T09:08:34.795Z,100358.13
2023-07-31T09:11:06.176Z,100364.53
2023-07-31T09:13:34.094Z,100353.91
2023-07-31T09:16:01.193Z,100354.50
2023-07-31T09:18:28.106Z,100346.41
2023-07-31T09:21:06.441Z,100347.63
2023-07-31T09:24:02.531Z,100350.56
2023-07-31T09:26:36.487Z,100356.59
2023-07-31T09:29:08.897Z,100346.78
2023-07-31T09:31:42.609Z,100351.50
2023-07-31T09:34:10.934Z,100348.97
2023-07-31T09:36:55.864Z,100340.78
2023-07-31T09:39:22.825Z,100330.59
2023-07-31T09:41:56.505Z,100338.25
2023-07-31T09:44:40.944Z,100329.69
2023-07-31T09:47:08.079Z,100329.31
2023-07-31T09:49:35.006Z,100325.44
2023-07-31T09:52:02.244Z,100331.00
2023-07-31T09:54:29.284Z,100331.00
2023-07-31T09:57:00.108Z,100326.53
2023-07-31T09:59:27.165Z,100332.69
2023-07-31T10:01:57.478Z,100329.09
2023-07-31T10:04:28.978Z,100341.63
2023-07-31T10:06:56.682Z,100331.63
2023-07-31T10:09:28.292Z,100333.47
2023-07-31T10:12:01.626Z,100323.44
2023-07-31T10:14:30.098Z,100325.00
2023-07-31T10:16:59.364Z,100321.16
2023-07-31T10:19:29.177Z,100326.22
2023-07-31T10:21:58.244Z,100319.44
2023-07-31T10:24:26.283Z,100323.44
2023-07-31T10:26:54.502Z,100322.22
2023-07-31T10:29:23.622Z,100317.28
2023-07-31T10:31:52.904Z,100315.13
2023-07-31T10:34:19.993Z,100325.75
2023-07-31T10:36:46.941Z,100315.72
2023-07-31T10:39:38.017Z,100312.88
2023-07-31T10:42:15.162Z,100319.53
2023-07-31T10:44:47.905Z,100306.47
2023-07-31T10:47:18.907Z,100313.72
2023-07-31T10:49:47.990Z,100317.81
2023-07-31T10:52:20.236Z,100310.94
2023-07-31T10:54:47.106Z,100303.47
2023-07-31T10:57:23.833Z,100309.88
2023-07-31T10:59:51.779Z,100306.03
2023-07-31T11:02:31.432Z,100304.31
2023-07-31T11:05:09.980Z,100305.53
2023-07-31T11:07:50.601Z,100302.16
2023-07-31T11:10:19.902Z,100299.16
2023-07-31T11:12:48.128Z,100304.31
2023-07-31T11:15:15.073Z,100306.03
2023-07-31T11:17:42.582Z,100306.03
2023-07-31T11:20:10.253Z,100311.56
2023-07-31T11:22:37.367Z,100307.72
2023-07-31T11:25:05.436Z,100301.53
2023-07-31T11:27:32.433Z,100300.47
2023-07-31T11:30:04.336Z,100299.38
2023-07-31T11:32:31.330Z,100300.47
2023-07-31T11:34:58.460Z,100300.47
2023-07-31T11:37:25.380Z,100291.28
2023-07-31T11:40:02.577Z,100297.84
2023-07-31T11:42:29.545Z,100291.66
2023-07-31T11:44:56.395Z,100288.47
2023-07-31T11:47:23.476Z,100290.63
2023-07-31T11:49:50.619Z,100286.75
2023-07-31T11:52:21.172Z,100289.53
2023-07-31T11:54:49.091Z,100285.09
2023-07-31T11:57:17.332Z,100284.25
2023-07-31T11:59:44.641Z,100286.75
2023-07-31T12:02:11.839Z,100274.41
2023-07-31T12:04:39.581Z,100275.66
2023-07-31T12:07:06.982Z,100281.22
2023-07-31T12:09:33.956Z,100277.38
2023-07-31T12:12:01.142Z,100279.53
2023-07-31T12:14:32.249Z,100290.13
2023-07-31T12:17:04.806Z,100288.47
2023-07-31T12:19:32.930Z,100292.91
2023-07-31T12:22:03.333Z,100292.69
2023-07-31T12:24:30.308Z,100291.84
2023-07-31T12:26:57.240Z,100291.00
2023-07-31T12:29:24.181Z,100283.53
2023-07-31T12:31:51.111Z,100285.22
2023-07-31T12:34:21.857Z,100269.66
2023-07-31T12:36:51.891Z,100270.72
2023-07-31T12:39:18.867Z,100276.53
2023-07-31T12:41:45.814Z,100267.94
2023-07-31T12:44:12.736Z,100264.56
2023-07-31T12:46:40.018Z,100264.09
2023-07-31T12:49:07.301Z,100262.38
2023-07-31T12:51:34.183Z,100266.88
2023-07-31T12:54:01.026Z,100252.38
2023-07-31T12:56:27.917Z,100255.16
2023-07-31T12:58:54.793Z,100256.84
2023-07-31T13:01:21.743Z,100251.56
2023-07-31T13:03:49.056Z,100249.16
2023-07-31T13:06:16.124Z,100247.69
2023-07-31T13:08:43.036Z,100245.75
2023-07-31T13:11:10.106Z,100235.75
2023-07-31T13:13:36.980Z,100240.19
2023-07-31T13:16:04.029Z,100236.81
2023-07-31T13:18:30.943Z,100243.22
2023-07-31T13:20:57.912Z,100245.75
2023-07-31T13:23:24.853Z,100242.34
2023-07-31T13:25:51.736Z,100239.84
2023-07-31T13:28:18.695Z,100235.13
2023-07-31T13:30:45.647Z,100221.25
2023-07-31T13:33:24.982Z,100225.97
2023-07-31T13:35:56.810Z,100216.31
2023-07-31T13:38:23.780Z,100207.38
2023-07-31T13:40:50.668Z,100216.75
2023-07-31T13:43:17.508Z,100212.94
2023-07-31T13:45:44.485Z,100212.09
2023-07-31T13:48:11.425Z,100215.72
2023-07-31T13:50:38.331Z,100209.06
2023-07-31T13:53:05.244Z,100205.66
2023-07-31T13:55:32.154Z,100212.94
2023-07-31T13:57:59.054Z,100224.03
2023-07-31T14:00:25.931Z,100218.69
2023-07-31T14:02:52.834Z,100222.94
2023-07-31T14:05:19.718Z,100221.25
2023-07-31T14:07:46.764Z,100209.53
2023-07-31T14:10:13.674Z,100209.31
2023-07-31T14:12:43.052Z,100203.97
2023-07-31T14:15:12.058Z,100210.75
2023-07-31T14:17:39.231Z,100203.50
2023-07-31T14:20:07.660Z,100204.59
2023-07-31T14:22:35.277Z,100201.59
2023-07-31T14:25:03.185Z,100194.53
2023-07-31T14:27:30.209Z,100194.53
2023-07-31T14:29:57.316Z,100195.44
2023-07-31T14:32:26.464Z,100210.34
2023-07-31T14:34:53.821Z,100200.09
2023-07-31T14:37:20.794Z,100207.38
2023-07-31T14:39:47.698Z,100207.38
2023-07-31T14:42:14.800Z,100192.88
2023-07-31T14:44:41.681Z,100182.59
2023-07-31T14:47:08.557Z,100171.31
2023-07-31T14:49:35.410Z,100171.91
2023-07-31T14:52:02.336Z,100164.66
2023-07-31T14:54:29.239Z,100164.66
2023-07-31T14:56:56.114Z,100159.56
2023-07-31T14:59:23.031Z,100152.91
2023-07-31T15:01:49.965Z,100146.78
2023-07-31T15:04:16.933Z,100147.59
2023-07-31T15:06:43.863Z,100139.03
2023-07-31T15:09:10.807Z,100144.59
2023-07-31T15:11:37.832Z,100147.38
2023-07-31T15:14:04.903Z,100144.59
2023-07-31T15:16:32.577Z,100135.22
2023-07-31T15:18:59.739Z,100130.13
2023-07-31T15:21:26.817Z,100127.94
2023-07-31T15:23:54.307Z,100126.91
2023-07-31T15:26:21.717Z,100129.19
2023-07-31T15:28:56.414Z,100125.34
2023-07-31T15:31:23.567Z,100136.44
2023-07-31T15:33:50.558Z,100108.69
2023-07-31T15:36:18.465Z,100107.00
2023-07-31T15:38:45.506Z,100103.16
2023-07-31T15:41:12.472Z,100100.38
2023-07-31T15:43:39.365Z,100088.19
2023-07-31T15:46:06.318Z,100096.53
2023-07-31T15:48:33.202Z,100081.78
2023-07-31T15:51:00.467Z,100089.88
2023-07-31T15:53:27.444Z,100096.25
2023-07-31T15:55:54.339Z,100084.31
2023-07-31T15:58:21.416Z,100086.50
2023-07-31T16:00:48.642Z,100080.09
2023-07-31T16:03:16.069Z,100068.78
2023-07-31T16:05:43.170Z,100057.16
2023-07-31T16:08:10.060Z,100057.91
2023-07-31T16:10:37.119Z,100054.91
2023-07-31T16:13:04.619Z,100064.88
2023-07-31T16:15:31.617Z,100059.56
2023-07-31T16:17:58.659Z,100052.13
2023-07-31T16:20:25.841Z,100034.84
2023-07-31T16:22:53.157Z,100034.38
2023-07-31T16:25:20.079Z,100018.81
2023-07-31T16:27:47.220Z,100025.44
2023-07-31T16:30:14.589Z,100023.25
2023-07-31T16:32:41.772Z,100026.28
2023-07-31T16:35:09.137Z,100019.41
2023-07-31T16:37:37.981Z,100014.34
2023-07-31T16:40:05.581Z,100011.56
2023-07-31T16:42:32.554Z,100001.06
2023-07-31T16:44:59.397Z,99997.34
2023-07-31T16:47:26.358Z,99993.84
2023-07-31T16:49:53.470Z,99995.28
2023-07-31T16:52:20.379Z,99978.88
2023-07-31T16:54:48.250Z,99980.56
2023-07-31T16:57:15.164Z,99965.47
2023-07-31T16:59:42.054Z,99958.84
2023-07-31T17:02:09.234Z,99965.22
2023-07-31T17:04:36.217Z,99951.59
2023-07-31T17:07:03.665Z,99953.28
2023-07-31T17:09:30.531Z,99953.28
2023-07-31T17:11:57.475Z,99956.66
2023-07-31T17:14:24.428Z,99955.00
2023-07-31T17:16:51.377Z,99957.13
2023-07-31T17:19:18.274Z,99959.91
2023-07-31T17:21:45.158Z,99940.75
2023-07-31T17:24:12.083Z,99949.91
2023-07-31T17:26:38.942Z,99942.66
2023-07-31T17:29:06.021Z,99941.00
2023-07-31T17:31:35.460Z,99934.63
2023-07-31T17:34:02.945Z,99929.41
2023-07-31T17:36:29.836Z,99931.56
2023-07-31T17:38:56.735Z,99923.72
2023-07-31T17:41:25.138Z,99926.03
2023-07-31T17:43:52.079Z,99927.97
2023-07-31T17:46:18.950Z,99929.91
2023-07-31T17:48:46.161Z,99913.47
2023-07-31T17:51:13.211Z,99922.63
2023-07-31T17:53:40.181Z,99916.22
2023-07-31T17:56:07.026Z,99912.16
2023-07-31T17:58:33.937Z,99909.66
2023-07-31T18:01:00.942Z,99909.84
2023-07-31T18:03:28.083Z,99905.97
2023-07-31T18:05:55.074Z,99924.34
2023-07-31T18:08:22.022Z,99904.31
2023-07-31T18:10:49.156Z,99905.97
2023-07-31T18:13:16.767Z,99900.94
2023-07-31T18:15:48.304Z,99898.75
2023-07-31T18:18:15.793Z,99895.84
2023-07-31T18:20:42.910Z,99892.84
2023-07-31T18:23:10.108Z,99882.50
2023-07-31T18:25:37.107Z,99883.78
2023-07-31T18:28:04.556Z,99863.75
2023-07-31T18:30:31.721Z,99862.09
2023-07-31T18:32:58.742Z,99862.09
2023-07-31T18:35:25.669Z,99861.22
2023-07-31T18:37:52.581Z,99856.53
2023-07-31T18:40:19.713Z,99852.31
2023-07-31T18:42:47.867Z,99851.94
2023-07-31T18:45:14.816Z,99854.84
2023-07-31T18:47:41.771Z,99862.09
2023-07-31T18:50:09.185Z,99868.47
2023-07-31T18:52:36.142Z,99876.78
2023-07-31T18:55:03.096Z,99870.66
2023-07-31T18:57:29.956Z,99884.28
2023-07-31T18:59:56.888Z,99862.09
2023-07-31T19:02:23.803Z,99856.53
2023-07-31T19:04:50.797Z,99830.09
2023-07-31T19:07:17.755Z,99847.09
2023-07-31T19:09:44.802Z,99845.44
2023-07-31T19:12:12.966Z,99840.38
2023-07-31T19:14:39.962Z,99847.59
2023-07-31T19:17:07.507Z,99859.78
2023-07-31T19:19:34.511Z,99852.53
2023-07-31T19:22:01.384Z,99844.22
2023-07-31T19:24:34.972Z,99849.28
2023-07-31T19:27:04.392Z,99837.34
2023-07-31T19:29:31.303Z,99828.44
2023-07-31T19:31:58.204Z,99830.59
2023-07-31T19:34:26.501Z,99822.53
2023-07-31T19:36:53.586Z,99826.38
2023-07-31T19:39:21.207Z,99824.69
2023-07-31T19:41:48.138Z,99829.16
2023-07-31T19:44:15.086Z,99823.03
2023-07-31T19:46:42.160Z,99817.47
2023-07-31T19:49:09.530Z,99814.09
2023-07-31T19:51:36.474Z,99815.19
2023-07-31T19:54:03.419Z,99810.72
2023-07-31T19:56:30.441Z,99801.81
2023-07-31T19:58:57.396Z,99812.91
2023-07-31T20:01:26.255Z,99812.03
2023-07-31T20:03:54.384Z,99806.75
2023-07-31T20:06:21.654Z,99805.66
2023-07-31T20:08:48.589Z,99810.63
2023-07-31T20:11:15.702Z,99807.84
2023-07-31T20:13:42.971Z,99811.69
2023-07-31T20:16:10.099Z,99815.56
2023-07-31T20:18:39.802Z,99808.31
2023-07-31T20:21:06.707Z,99806.13
2023-07-31T20:23:43.046Z,99802.78
2023-07-31T20:26:11.162Z,99806.06
2023-07-31T20:28:38.337Z,99799.66
2023-07-31T20:31:05.602Z,99809.44
2023-07-31T20:33:32.667Z,99803.28
2023-07-31T20:35:59.598Z,99802.19
2023-07-31T20:38:26.505Z,99800.25
2023-07-31T20:40:53.426Z,99795.56
2023-07-31T20:43:20.608Z,99796.63
2023-07-31T20:45:47.982Z,99792.19
2023-07-31T20:48:15.827Z,99787.47
2023-07-31T20:50:43.172Z,99762.75
2023-07-31T20:53:10.231Z,99764.69
2023-07-31T20:55:39.831Z,99750.84
2023-07-31T20:58:08.146Z,99751.66
2023-07-31T21:00:35.217Z,99750.84
2023-07-31T21:03:05.422Z,99743.34
2023-07-31T21:05:32.530Z,99742.28
2023-07-31T21:08:00.390Z,99737.22
2023-07-31T21:10:27.252Z,99729.13
2023-07-31T21:12:54.132Z,99727.78
2023-07-31T21:15:21.135Z,99726.13
2023-07-31T21:17:48.093Z,99722.22
2023-07-31T21:22:57.702Z,99706.34
2023-07-31T21:25:24.705Z,99708.28
2023-07-31T21:27:51.544Z,99711.06
2023-07-31T21:30:18.420Z,99705.53
2023-07-31T21:32:45.323Z,99701.03
2023-07-31T21:35:12.214Z,99698.03
2023-07-31T21:37:39.120Z,99687.78
2023-07-31T21:40:06.720Z,99682.22
2023-07-31T21:42:33.613Z,99678.38
2023-07-31T21:45:00.544Z,99678.38
2023-07-31T21:47:27.466Z,99677.50
2023-07-31T21:49:54.415Z,99657.03
2023-07-31T21:52:21.268Z,99670.06
2023-07-31T21:54:48.482Z,99660.88
2023-07-31T21:57:15.671Z,99670.66
2023-07-31T21:59:42.580Z,99660.03
2023-07-31T22:02:09.465Z,99650.66
2023-07-31T22:04:36.353Z,99645.09
2023-07-31T22:07:03.283Z,99639.56
2023-07-31T22:09:30.180Z,99647.13
2023-07-31T22:11:57.088Z,99639.03
2023-07-31T22:14:24.064Z,99634.00
2023-07-31T22:16:50.974Z,99636.78
2023-07-31T22:19:17.866Z,99623.75
2023-07-31T22:21:44.736Z,99624.81
2023-07-31T22:24:11.687Z,99629.28
2023-07-31T22:26:38.821Z,99622.34
2023-07-31T22:29:06.259Z,99617.38
2023-07-31T22:31:33.279Z,99618.69
2023-07-31T22:34:00.170Z,99624.34
2023-07-31T22:36:27.131Z,99617.38
2023-07-31T22:38:54.001Z,99611.25
2023-07-31T22:41:21.011Z,99603.50
2023-07-31T22:43:47.919Z,99590.97
2023-07-31T22:46:14.914Z,99595.19
2023-07-31T22:48:41.817Z,99594.59
2023-07-31T22:51:08.727Z,99591.81
2023-07-31T22:53:35.624Z,99595.69
2023-07-31T22:56:07.003Z,99604.00
2023-07-31T22:58:34.148Z,99599.53
2023-07-31T23:01:09.412Z,99594.84
2023-07-31T23:03:36.436Z,99591.81
2023-07-31T23:06:04.240Z,99591.22
2023-07-31T23:08:31.253Z,99582.88
2023-07-31T23:10:58.295Z,99577.88
2023-07-31T23:13:25.171Z,99572.91
2023-07-31T23:15:52.100Z,99568.44
2023-07-31T23:18:19.054Z,99576.75
2023-07-31T23:20:54.386Z,99576.50
2023-07-31T23:23:21.334Z,99565.66
2023-07-31T23:25:51.428Z,99552.91
2023-07-31T23:28:19.790Z,99547.94
2023-07-31T23:30:48.634Z,99550.13
2023-07-31T23:33:15.608Z,99550.13
2023-07-31T23:35:42.660Z,99544.59
2023-07-31T23:38:09.678Z,99530.97
2023-07-31T23:40:36.574Z,99540.38
2023-07-31T23:43:03.517Z,99528.44
2023-07-31T23:45:30.431Z,99528.44
2023-07-31T23:47:57.375Z,99534.56
2023-07-31T23:50:24.489Z,99536.53
2023-07-31T23:52:51.612Z,99539.53
2023-07-31T23:55:19.242Z,99534.56
2023-07-31T23:57:46.828Z,99541.22
